Terminal Aerodrome Forecast
Issued by NWS

Home | Current Version | Previous Version | Graphics & Text | Print | Product List | Glossary On
Versions: 1 2 3 4 5 6 7 8 9 10 11 12 13 14 15
000
FTUS45 KGGW 281500 AAA
TAFSDY
TAF AMD
KSDY 281547Z 2816/2912 25023G35KT 6SM -RA SCT022 BKN030 OVC035
     FM281800 27038G53KT 3SM RA BKN026 OVC035
     FM290000 29030G42KT P6SM BKN045 BKN080
     FM290600 28018KT P6SM SCT180
      AMD LTD TO CLD VIS AND WIND=

USA.gov is the U.S. government's official web portal to all federal, state and local government web resources and services.